sensor_id;sensor_type;location;lat;lon;timestamp;P1;durP1;ratioP1;P2;durP2;ratioP2
60464;SDS011;46314;52.392;9.758;2022-10-13T00:00:13;8.73;;;7.20;;
60464;SDS011;46314;52.392;9.758;2022-10-13T00:02:39;11.70;;;7.03;;
60464;SDS011;46314;52.392;9.758;2022-10-13T00:05:06;10.50;;;8.15;;
60464;SDS011;46314;52.392;9.758;2022-10-13T00:07:33;16.55;;;8.13;;
60464;SDS011;46314;52.392;9.758;2022-10-13T00:10:01;11.13;;;7.13;;
60464;SDS011;46314;52.392;9.758;2022-10-13T00:12:28;17.33;;;7.85;;
60464;SDS011;46314;52.392;9.758;2022-10-13T00:14:55;11.30;;;7.38;;
60464;SDS011;46314;52.392;9.758;2022-10-13T00:17:23;10.95;;;7.50;;
60464;SDS011;46314;52.392;9.758;2022-10-13T00:19:49;13.38;;;7.43;;
60464;SDS011;46314;52.392;9.758;2022-10-13T00:22:16;9.57;;;7.10;;
60464;SDS011;46314;52.392;9.758;2022-10-13T00:24:43;13.00;;;7.03;;
60464;SDS011;46314;52.392;9.758;2022-10-13T00:27:11;13.15;;;7.78;;
60464;SDS011;46314;52.392;9.758;2022-10-13T00:29:37;11.80;;;7.85;;
60464;SDS011;46314;52.392;9.758;2022-10-13T00:32:04;10.18;;;7.07;;
60464;SDS011;46314;52.392;9.758;2022-10-13T00:34:30;11.30;;;7.80;;
60464;SDS011;46314;52.392;9.758;2022-10-13T00:36:56;14.05;;;7.68;;
60464;SDS011;46314;52.392;9.758;2022-10-13T00:39:23;13.70;;;7.35;;
60464;SDS011;46314;52.392;9.758;2022-10-13T00:41:49;11.15;;;7.65;;
60464;SDS011;46314;52.392;9.758;2022-10-13T00:47:25;12.10;;;7.60;;
60464;SDS011;46314;52.392;9.758;2022-10-13T00:49:54;12.48;;;7.55;;
60464;SDS011;46314;52.392;9.758;2022-10-13T00:52:21;12.05;;;7.28;;
60464;SDS011;46314;52.392;9.758;2022-10-13T00:54:50;9.73;;;6.65;;
60464;SDS011;46314;52.392;9.758;2022-10-13T00:57:17;9.68;;;7.38;;
60464;SDS011;46314;52.392;9.758;2022-10-13T00:59:45;13.05;;;7.30;;
60464;SDS011;46314;52.392;9.758;2022-10-13T01:02:13;9.82;;;7.47;;
60464;SDS011;46314;52.392;9.758;2022-10-13T01:04:41;10.30;;;7.35;;
60464;SDS011;46314;52.392;9.758;2022-10-13T01:07:10;10.63;;;7.60;;
60464;SDS011;46314;52.392;9.758;2022-10-13T01:09:39;13.90;;;7.70;;
60464;SDS011;46314;52.392;9.758;2022-10-13T01:12:07;10.13;;;7.35;;
60464;SDS011;46314;52.392;9.758;2022-10-13T01:14:47;12.77;;;7.90;;
60464;SDS011;46314;52.392;9.758;2022-10-13T01:17:21;9.88;;;7.03;;
60464;SDS011;46314;52.392;9.758;2022-10-13T01:22:59;16.40;;;7.43;;
60464;SDS011;46314;52.392;9.758;2022-10-13T01:28:46;13.90;;;9.10;;
60464;SDS011;46314;52.392;9.758;2022-10-13T01:31:29;15.32;;;7.97;;
60464;SDS011;46314;52.392;9.758;2022-10-13T01:34:04;12.10;;;7.70;;
60464;SDS011;46314;52.392;9.758;2022-10-13T01:36:41;15.52;;;8.15;;
60464;SDS011;46314;52.392;9.758;2022-10-13T01:39:18;12.70;;;8.20;;
60464;SDS011;46314;52.392;9.758;2022-10-13T01:41:52;12.30;;;7.60;;
60464;SDS011;46314;52.392;9.758;2022-10-13T01:46:55;16.67;;;8.02;;
60464;SDS011;46314;52.392;9.758;2022-10-13T01:49:25;15.05;;;8.35;;
60464;SDS011;46314;52.392;9.758;2022-10-13T01:51:56;12.07;;;8.32;;
60464;SDS011;46314;52.392;9.758;2022-10-13T01:54:26;13.77;;;8.45;;
60464;SDS011;46314;52.392;9.758;2022-10-13T01:56:53;13.82;;;8.50;;
60464;SDS011;46314;52.392;9.758;2022-10-13T01:59:20;11.82;;;7.63;;
60464;SDS011;46314;52.392;9.758;2022-10-13T02:01:53;13.90;;;8.48;;
60464;SDS011;46314;52.392;9.758;2022-10-13T02:04:30;13.88;;;7.90;;
60464;SDS011;46314;52.392;9.758;2022-10-13T02:07:07;14.68;;;8.80;;
60464;SDS011;46314;52.392;9.758;2022-10-13T02:09:41;13.15;;;9.05;;
60464;SDS011;46314;52.392;9.758;2022-10-13T02:12:16;18.25;;;8.50;;
60464;SDS011;46314;52.392;9.758;2022-10-13T02:14:49;18.98;;;8.50;;
60464;SDS011;46314;52.392;9.758;2022-10-13T02:17:19;12.48;;;8.18;;
60464;SDS011;46314;52.392;9.758;2022-10-13T02:19:46;11.90;;;8.38;;
60464;SDS011;46314;52.392;9.758;2022-10-13T02:22:13;13.25;;;8.10;;
60464;SDS011;46314;52.392;9.758;2022-10-13T02:24:41;12.38;;;7.80;;
60464;SDS011;46314;52.392;9.758;2022-10-13T02:27:08;14.95;;;8.23;;
60464;SDS011;46314;52.392;9.758;2022-10-13T02:29:46;13.40;;;8.73;;
60464;SDS011;46314;52.392;9.758;2022-10-13T02:32:14;12.98;;;9.10;;
60464;SDS011;46314;52.392;9.758;2022-10-13T02:34:41;15.90;;;8.55;;
60464;SDS011;46314;52.392;9.758;2022-10-13T02:37:08;10.38;;;8.15;;
60464;SDS011;46314;52.392;9.758;2022-10-13T02:39:34;14.60;;;8.80;;
60464;SDS011;46314;52.392;9.758;2022-10-13T02:42:01;12.68;;;8.43;;
60464;SDS011;46314;52.392;9.758;2022-10-13T02:44:27;10.77;;;8.27;;
60464;SDS011;46314;52.392;9.758;2022-10-13T02:46:54;13.45;;;8.65;;
60464;SDS011;46314;52.392;9.758;2022-10-13T02:49:20;11.98;;;8.27;;
60464;SDS011;46314;52.392;9.758;2022-10-13T02:51:48;15.55;;;8.82;;
60464;SDS011;46314;52.392;9.758;2022-10-13T02:54:15;16.98;;;8.48;;
60464;SDS011;46314;52.392;9.758;2022-10-13T02:56:41;11.98;;;8.25;;
60464;SDS011;46314;52.392;9.758;2022-10-13T02:59:08;13.55;;;8.38;;
60464;SDS011;46314;52.392;9.758;2022-10-13T03:01:34;14.50;;;9.68;;
60464;SDS011;46314;52.392;9.758;2022-10-13T03:04:01;13.15;;;8.40;;
60464;SDS011;46314;52.392;9.758;2022-10-13T03:06:27;13.77;;;8.73;;
60464;SDS011;46314;52.392;9.758;2022-10-13T03:08:55;25.38;;;9.77;;
60464;SDS011;46314;52.392;9.758;2022-10-13T03:11:21;18.15;;;9.88;;
60464;SDS011;46314;52.392;9.758;2022-10-13T03:13:48;12.63;;;8.43;;
60464;SDS011;46314;52.392;9.758;2022-10-13T03:16:14;12.75;;;8.85;;
60464;SDS011;46314;52.392;9.758;2022-10-13T03:18:41;18.45;;;10.00;;
60464;SDS011;46314;52.392;9.758;2022-10-13T03:21:08;14.40;;;9.45;;
60464;SDS011;46314;52.392;9.758;2022-10-13T03:23:35;11.60;;;8.48;;
60464;SDS011;46314;52.392;9.758;2022-10-13T03:26:04;14.32;;;9.35;;
60464;SDS011;46314;52.392;9.758;2022-10-13T03:28:30;14.95;;;8.95;;
60464;SDS011;46314;52.392;9.758;2022-10-13T03:31:00;18.42;;;9.57;;
60464;SDS011;46314;52.392;9.758;2022-10-13T03:33:28;16.45;;;9.68;;
60464;SDS011;46314;52.392;9.758;2022-10-13T03:35:56;11.35;;;7.93;;
60464;SDS011;46314;52.392;9.758;2022-10-13T03:38:23;15.38;;;9.48;;
60464;SDS011;46314;52.392;9.758;2022-10-13T03:40:50;13.52;;;8.95;;
60464;SDS011;46314;52.392;9.758;2022-10-13T03:43:18;13.25;;;9.07;;
60464;SDS011;46314;52.392;9.758;2022-10-13T03:45:52;15.10;;;10.32;;
60464;SDS011;46314;52.392;9.758;2022-10-13T03:48:19;13.90;;;10.02;;
60464;SDS011;46314;52.392;9.758;2022-10-13T03:50:46;14.32;;;10.35;;
60464;SDS011;46314;52.392;9.758;2022-10-13T03:53:12;15.25;;;10.35;;
60464;SDS011;46314;52.392;9.758;2022-10-13T03:55:39;16.52;;;10.18;;
60464;SDS011;46314;52.392;9.758;2022-10-13T03:58:05;16.13;;;10.88;;
60464;SDS011;46314;52.392;9.758;2022-10-13T04:03:02;15.00;;;10.15;;
60464;SDS011;46314;52.392;9.758;2022-10-13T04:05:29;16.70;;;10.68;;
60464;SDS011;46314;52.392;9.758;2022-10-13T04:07:55;14.45;;;9.68;;
60464;SDS011;46314;52.392;9.758;2022-10-13T04:10:22;18.52;;;10.00;;
60464;SDS011;46314;52.392;9.758;2022-10-13T04:12:48;15.23;;;10.25;;
60464;SDS011;46314;52.392;9.758;2022-10-13T04:15:15;13.75;;;9.77;;
60464;SDS011;46314;52.392;9.758;2022-10-13T04:17:42;20.35;;;9.32;;
60464;SDS011;46314;52.392;9.758;2022-10-13T04:20:09;15.27;;;10.57;;
60464;SDS011;46314;52.392;9.758;2022-10-13T04:22:36;18.70;;;10.23;;
60464;SDS011;46314;52.392;9.758;2022-10-13T04:25:03;18.73;;;11.93;;
60464;SDS011;46314;52.392;9.758;2022-10-13T04:27:30;17.25;;;11.55;;
60464;SDS011;46314;52.392;9.758;2022-10-13T04:29:57;19.60;;;11.30;;
60464;SDS011;46314;52.392;9.758;2022-10-13T04:32:23;16.20;;;10.57;;
60464;SDS011;46314;52.392;9.758;2022-10-13T04:34:51;17.15;;;10.93;;
60464;SDS011;46314;52.392;9.758;2022-10-13T04:37:18;13.35;;;9.95;;
60464;SDS011;46314;52.392;9.758;2022-10-13T04:39:44;16.20;;;10.20;;
60464;SDS011;46314;52.392;9.758;2022-10-13T04:42:10;16.02;;;11.13;;
60464;SDS011;46314;52.392;9.758;2022-10-13T04:44:37;24.42;;;11.02;;
60464;SDS011;46314;52.392;9.758;2022-10-13T04:47:03;13.65;;;10.27;;
60464;SDS011;46314;52.392;9.758;2022-10-13T04:49:30;16.40;;;11.43;;
60464;SDS011;46314;52.392;9.758;2022-10-13T04:51:58;14.70;;;11.23;;
60464;SDS011;46314;52.392;9.758;2022-10-13T04:54:24;14.93;;;10.77;;
60464;SDS011;46314;52.392;9.758;2022-10-13T04:56:51;18.30;;;12.68;;
60464;SDS011;46314;52.392;9.758;2022-10-13T04:59:17;21.77;;;12.35;;
60464;SDS011;46314;52.392;9.758;2022-10-13T05:01:43;20.80;;;11.57;;
60464;SDS011;46314;52.392;9.758;2022-10-13T05:04:10;15.75;;;10.27;;
60464;SDS011;46314;52.392;9.758;2022-10-13T05:06:37;17.98;;;12.73;;
60464;SDS011;46314;52.392;9.758;2022-10-13T05:09:26;15.90;;;10.95;;
60464;SDS011;46314;52.392;9.758;2022-10-13T05:11:53;18.40;;;12.50;;
60464;SDS011;46314;52.392;9.758;2022-10-13T05:14:19;18.35;;;11.60;;
60464;SDS011;46314;52.392;9.758;2022-10-13T05:16:46;20.55;;;12.75;;
60464;SDS011;46314;52.392;9.758;2022-10-13T05:19:13;17.38;;;12.73;;
60464;SDS011;46314;52.392;9.758;2022-10-13T05:21:40;14.93;;;11.82;;
60464;SDS011;46314;52.392;9.758;2022-10-13T05:24:06;20.30;;;12.07;;
60464;SDS011;46314;52.392;9.758;2022-10-13T05:26:35;22.15;;;12.60;;
60464;SDS011;46314;52.392;9.758;2022-10-13T05:29:01;20.00;;;12.18;;
60464;SDS011;46314;52.392;9.758;2022-10-13T05:31:28;20.02;;;13.65;;
60464;SDS011;46314;52.392;9.758;2022-10-13T05:33:56;19.75;;;13.05;;
60464;SDS011;46314;52.392;9.758;2022-10-13T05:36:24;17.48;;;12.52;;
60464;SDS011;46314;52.392;9.758;2022-10-13T05:38:51;16.63;;;11.70;;
60464;SDS011;46314;52.392;9.758;2022-10-13T05:41:19;21.25;;;14.32;;
60464;SDS011;46314;52.392;9.758;2022-10-13T05:43:48;19.80;;;13.25;;
60464;SDS011;46314;52.392;9.758;2022-10-13T05:46:16;18.45;;;12.57;;
60464;SDS011;46314;52.392;9.758;2022-10-13T05:48:43;19.02;;;12.25;;
60464;SDS011;46314;52.392;9.758;2022-10-13T05:51:10;19.08;;;14.00;;
60464;SDS011;46314;52.392;9.758;2022-10-13T05:53:39;17.70;;;13.10;;
60464;SDS011;46314;52.392;9.758;2022-10-13T05:56:17;23.95;;;14.60;;
60464;SDS011;46314;52.392;9.758;2022-10-13T05:58:47;23.90;;;13.57;;
60464;SDS011;46314;52.392;9.758;2022-10-13T06:01:19;24.35;;;14.48;;
60464;SDS011;46314;52.392;9.758;2022-10-13T06:03:48;23.40;;;14.10;;
60464;SDS011;46314;52.392;9.758;2022-10-13T06:06:16;26.25;;;14.60;;
60464;SDS011;46314;52.392;9.758;2022-10-13T06:08:43;22.73;;;14.35;;
60464;SDS011;46314;52.392;9.758;2022-10-13T06:11:10;21.33;;;13.18;;
60464;SDS011;46314;52.392;9.758;2022-10-13T06:13:36;23.05;;;14.02;;
60464;SDS011;46314;52.392;9.758;2022-10-13T06:16:04;17.58;;;12.68;;
60464;SDS011;46314;52.392;9.758;2022-10-13T06:18:31;22.42;;;14.23;;
60464;SDS011;46314;52.392;9.758;2022-10-13T06:20:57;19.50;;;12.98;;
60464;SDS011;46314;52.392;9.758;2022-10-13T06:23:24;22.17;;;13.93;;
60464;SDS011;46314;52.392;9.758;2022-10-13T06:25:51;19.33;;;14.02;;
60464;SDS011;46314;52.392;9.758;2022-10-13T06:28:19;18.67;;;14.57;;
60464;SDS011;46314;52.392;9.758;2022-10-13T06:30:46;19.25;;;14.25;;
60464;SDS011;46314;52.392;9.758;2022-10-13T06:33:14;20.42;;;13.60;;
60464;SDS011;46314;52.392;9.758;2022-10-13T06:35:41;22.25;;;13.82;;
60464;SDS011;46314;52.392;9.758;2022-10-13T06:38:07;18.20;;;14.00;;
60464;SDS011;46314;52.392;9.758;2022-10-13T06:40:34;21.65;;;13.73;;
60464;SDS011;46314;52.392;9.758;2022-10-13T06:43:00;20.80;;;13.93;;
60464;SDS011;46314;52.392;9.758;2022-10-13T06:45:27;23.35;;;15.13;;
60464;SDS011;46314;52.392;9.758;2022-10-13T06:47:53;20.35;;;14.82;;
60464;SDS011;46314;52.392;9.758;2022-10-13T06:50:21;22.67;;;14.02;;
60464;SDS011;46314;52.392;9.758;2022-10-13T06:52:48;23.33;;;14.73;;
60464;SDS011;46314;52.392;9.758;2022-10-13T06:55:15;24.17;;;15.00;;
60464;SDS011;46314;52.392;9.758;2022-10-13T06:57:41;19.42;;;14.25;;
60464;SDS011;46314;52.392;9.758;2022-10-13T07:00:08;22.75;;;14.95;;
60464;SDS011;46314;52.392;9.758;2022-10-13T07:02:36;20.77;;;13.93;;
60464;SDS011;46314;52.392;9.758;2022-10-13T07:05:02;19.17;;;14.90;;
60464;SDS011;46314;52.392;9.758;2022-10-13T07:07:30;21.33;;;14.95;;
60464;SDS011;46314;52.392;9.758;2022-10-13T07:09:57;21.80;;;13.85;;
60464;SDS011;46314;52.392;9.758;2022-10-13T07:12:23;19.70;;;13.65;;
60464;SDS011;46314;52.392;9.758;2022-10-13T07:14:49;24.85;;;14.20;;
60464;SDS011;46314;52.392;9.758;2022-10-13T07:17:16;20.90;;;15.40;;
60464;SDS011;46314;52.392;9.758;2022-10-13T07:19:43;20.40;;;14.80;;
60464;SDS011;46314;52.392;9.758;2022-10-13T07:22:09;26.65;;;14.88;;
60464;SDS011;46314;52.392;9.758;2022-10-13T07:24:37;22.77;;;14.32;;
60464;SDS011;46314;52.392;9.758;2022-10-13T07:27:03;23.83;;;13.45;;
60464;SDS011;46314;52.392;9.758;2022-10-13T07:29:33;25.42;;;13.90;;
60464;SDS011;46314;52.392;9.758;2022-10-13T07:31:59;26.08;;;14.68;;
60464;SDS011;46314;52.392;9.758;2022-10-13T07:34:26;18.58;;;13.50;;
60464;SDS011;46314;52.392;9.758;2022-10-13T07:36:52;20.77;;;14.27;;
60464;SDS011;46314;52.392;9.758;2022-10-13T07:39:19;19.98;;;14.15;;
60464;SDS011;46314;52.392;9.758;2022-10-13T07:41:46;21.85;;;13.57;;
60464;SDS011;46314;52.392;9.758;2022-10-13T07:44:16;22.52;;;13.40;;
60464;SDS011;46314;52.392;9.758;2022-10-13T07:46:43;18.98;;;13.23;;
60464;SDS011;46314;52.392;9.758;2022-10-13T07:49:09;18.88;;;13.43;;
60464;SDS011;46314;52.392;9.758;2022-10-13T07:51:41;21.48;;;13.23;;
60464;SDS011;46314;52.392;9.758;2022-10-13T07:54:07;19.25;;;13.25;;
60464;SDS011;46314;52.392;9.758;2022-10-13T07:56:34;19.70;;;13.35;;
60464;SDS011;46314;52.392;9.758;2022-10-13T07:59:02;18.73;;;12.93;;
60464;SDS011;46314;52.392;9.758;2022-10-13T08:01:28;18.95;;;12.70;;
60464;SDS011;46314;52.392;9.758;2022-10-13T08:03:55;17.98;;;13.13;;
60464;SDS011;46314;52.392;9.758;2022-10-13T08:06:21;20.17;;;12.95;;
60464;SDS011;46314;52.392;9.758;2022-10-13T08:08:48;17.92;;;13.05;;
60464;SDS011;46314;52.392;9.758;2022-10-13T08:11:15;18.75;;;13.02;;
60464;SDS011;46314;52.392;9.758;2022-10-13T08:13:45;17.88;;;11.88;;
60464;SDS011;46314;52.392;9.758;2022-10-13T08:16:13;15.27;;;11.93;;
60464;SDS011;46314;52.392;9.758;2022-10-13T08:18:39;18.45;;;13.15;;
60464;SDS011;46314;52.392;9.758;2022-10-13T08:21:07;17.95;;;13.05;;
60464;SDS011;46314;52.392;9.758;2022-10-13T08:23:56;22.70;;;12.57;;
60464;SDS011;46314;52.392;9.758;2022-10-13T08:26:23;18.80;;;11.70;;
60464;SDS011;46314;52.392;9.758;2022-10-13T08:28:51;19.23;;;13.27;;
60464;SDS011;46314;52.392;9.758;2022-10-13T08:31:39;19.70;;;12.35;;
60464;SDS011;46314;52.392;9.758;2022-10-13T08:34:06;17.75;;;12.02;;
60464;SDS011;46314;52.392;9.758;2022-10-13T08:36:32;19.70;;;12.05;;
60464;SDS011;46314;52.392;9.758;2022-10-13T08:38:59;15.00;;;11.63;;
60464;SDS011;46314;52.392;9.758;2022-10-13T08:41:26;15.77;;;11.95;;
60464;SDS011;46314;52.392;9.758;2022-10-13T08:43:55;15.82;;;11.13;;
60464;SDS011;46314;52.392;9.758;2022-10-13T08:46:52;19.42;;;11.60;;
60464;SDS011;46314;52.392;9.758;2022-10-13T08:49:27;18.42;;;11.02;;
60464;SDS011;46314;52.392;9.758;2022-10-13T08:51:55;14.20;;;10.30;;
60464;SDS011;46314;52.392;9.758;2022-10-13T08:54:22;15.57;;;9.90;;
60464;SDS011;46314;52.392;9.758;2022-10-13T08:56:51;16.02;;;10.88;;
60464;SDS011;46314;52.392;9.758;2022-10-13T08:59:18;22.42;;;11.32;;
60464;SDS011;46314;52.392;9.758;2022-10-13T09:01:45;19.52;;;10.68;;
60464;SDS011;46314;52.392;9.758;2022-10-13T09:04:18;14.50;;;10.88;;
60464;SDS011;46314;52.392;9.758;2022-10-13T09:06:54;17.05;;;11.55;;
60464;SDS011;46314;52.392;9.758;2022-10-13T09:09:24;20.00;;;10.45;;
60464;SDS011;46314;52.392;9.758;2022-10-13T09:11:50;15.98;;;10.85;;
60464;SDS011;46314;52.392;9.758;2022-10-13T09:14:21;13.00;;;10.00;;
60464;SDS011;46314;52.392;9.758;2022-10-13T09:16:49;16.45;;;9.45;;
60464;SDS011;46314;52.392;9.758;2022-10-13T09:19:22;19.00;;;10.57;;
60464;SDS011;46314;52.392;9.758;2022-10-13T09:24:18;17.45;;;9.65;;
60464;SDS011;46314;52.392;9.758;2022-10-13T09:26:47;13.35;;;10.23;;
60464;SDS011;46314;52.392;9.758;2022-10-13T09:29:18;20.15;;;11.35;;
60464;SDS011;46314;52.392;9.758;2022-10-13T09:31:47;15.90;;;9.27;;
60464;SDS011;46314;52.392;9.758;2022-10-13T09:34:15;18.52;;;9.95;;
60464;SDS011;46314;52.392;9.758;2022-10-13T09:36:56;15.18;;;9.50;;
60464;SDS011;46314;52.392;9.758;2022-10-13T09:39:24;14.70;;;10.18;;
60464;SDS011;46314;52.392;9.758;2022-10-13T09:41:51;17.25;;;10.25;;
60464;SDS011;46314;52.392;9.758;2022-10-13T09:44:33;14.57;;;9.63;;
60464;SDS011;46314;52.392;9.758;2022-10-13T09:47:00;14.15;;;9.65;;
60464;SDS011;46314;52.392;9.758;2022-10-13T09:49:31;13.35;;;8.10;;
60464;SDS011;46314;52.392;9.758;2022-10-13T09:52:01;14.20;;;9.40;;
60464;SDS011;46314;52.392;9.758;2022-10-13T09:54:39;12.75;;;9.07;;
60464;SDS011;46314;52.392;9.758;2022-10-13T09:57:11;13.45;;;9.77;;
60464;SDS011;46314;52.392;9.758;2022-10-13T09:59:44;13.75;;;9.82;;
60464;SDS011;46314;52.392;9.758;2022-10-13T10:02:16;15.57;;;9.52;;
60464;SDS011;46314;52.392;9.758;2022-10-13T10:04:53;13.32;;;8.70;;
60464;SDS011;46314;52.392;9.758;2022-10-13T10:07:25;12.05;;;8.38;;
60464;SDS011;46314;52.392;9.758;2022-10-13T10:09:55;19.02;;;9.13;;
60464;SDS011;46314;52.392;9.758;2022-10-13T10:12:29;11.95;;;8.30;;
60464;SDS011;46314;52.392;9.758;2022-10-13T10:14:57;13.70;;;9.10;;
60464;SDS011;46314;52.392;9.758;2022-10-13T10:17:26;10.85;;;7.53;;
60464;SDS011;46314;52.392;9.758;2022-10-13T10:22:33;14.68;;;8.15;;
60464;SDS011;46314;52.392;9.758;2022-10-13T10:25:09;11.98;;;8.18;;
60464;SDS011;46314;52.392;9.758;2022-10-13T10:27:49;12.10;;;7.68;;
60464;SDS011;46314;52.392;9.758;2022-10-13T10:30:27;16.00;;;8.23;;
60464;SDS011;46314;52.392;9.758;2022-10-13T10:32:57;16.23;;;7.82;;
60464;SDS011;46314;52.392;9.758;2022-10-13T10:35:37;12.83;;;8.13;;
60464;SDS011;46314;52.392;9.758;2022-10-13T10:38:14;11.02;;;7.05;;
60464;SDS011;46314;52.392;9.758;2022-10-13T10:40:50;10.82;;;7.07;;
60464;SDS011;46314;52.392;9.758;2022-10-13T10:43:46;12.40;;;7.40;;
60464;SDS011;46314;52.392;9.758;2022-10-13T10:46:19;13.75;;;7.95;;
60464;SDS011;46314;52.392;9.758;2022-10-13T10:48:48;9.25;;;6.97;;
60464;SDS011;46314;52.392;9.758;2022-10-13T10:51:19;15.10;;;7.57;;
60464;SDS011;46314;52.392;9.758;2022-10-13T10:53:53;13.05;;;7.38;;
60464;SDS011;46314;52.392;9.758;2022-10-13T10:56:29;13.50;;;7.40;;
60464;SDS011;46314;52.392;9.758;2022-10-13T10:59:02;11.73;;;8.00;;
60464;SDS011;46314;52.392;9.758;2022-10-13T11:01:39;10.20;;;7.28;;
60464;SDS011;46314;52.392;9.758;2022-10-13T11:04:30;15.77;;;7.72;;
60464;SDS011;46314;52.392;9.758;2022-10-13T11:07:04;7.68;;;6.30;;
60464;SDS011;46314;52.392;9.758;2022-10-13T11:15:50;11.10;;;6.82;;
60464;SDS011;46314;52.392;9.758;2022-10-13T11:21:21;9.80;;;6.65;;
60464;SDS011;46314;52.392;9.758;2022-10-13T11:23:49;12.30;;;7.25;;
60464;SDS011;46314;52.392;9.758;2022-10-13T11:29:17;9.82;;;7.10;;
60464;SDS011;46314;52.392;9.758;2022-10-13T11:32:04;13.63;;;7.25;;
60464;SDS011;46314;52.392;9.758;2022-10-13T11:34:55;10.48;;;6.80;;
60464;SDS011;46314;52.392;9.758;2022-10-13T11:37:23;11.55;;;7.68;;
60464;SDS011;46314;52.392;9.758;2022-10-13T11:40:04;12.38;;;7.47;;
60464;SDS011;46314;52.392;9.758;2022-10-13T11:42:50;11.50;;;8.05;;
60464;SDS011;46314;52.392;9.758;2022-10-13T11:45:39;9.35;;;6.72;;
60464;SDS011;46314;52.392;9.758;2022-10-13T11:48:22;9.63;;;6.63;;
60464;SDS011;46314;52.392;9.758;2022-10-13T11:51:04;11.48;;;6.95;;
60464;SDS011;46314;52.392;9.758;2022-10-13T11:53:42;14.13;;;6.78;;
60464;SDS011;46314;52.392;9.758;2022-10-13T11:56:21;11.02;;;7.05;;
60464;SDS011;46314;52.392;9.758;2022-10-13T11:58:58;10.35;;;6.75;;
60464;SDS011;46314;52.392;9.758;2022-10-13T12:01:24;9.68;;;6.32;;
60464;SDS011;46314;52.392;9.758;2022-10-13T12:03:51;13.38;;;6.43;;
60464;SDS011;46314;52.392;9.758;2022-10-13T12:06:23;9.45;;;6.25;;
60464;SDS011;46314;52.392;9.758;2022-10-13T12:08:53;9.63;;;6.45;;
60464;SDS011;46314;52.392;9.758;2022-10-13T12:11:23;10.90;;;6.40;;
60464;SDS011;46314;52.392;9.758;2022-10-13T12:13:51;9.20;;;6.13;;
60464;SDS011;46314;52.392;9.758;2022-10-13T12:16:18;9.75;;;6.82;;
60464;SDS011;46314;52.392;9.758;2022-10-13T12:18:44;8.60;;;6.30;;
60464;SDS011;46314;52.392;9.758;2022-10-13T12:21:14;13.35;;;7.63;;
60464;SDS011;46314;52.392;9.758;2022-10-13T12:23:42;9.68;;;6.65;;
60464;SDS011;46314;52.392;9.758;2022-10-13T12:26:12;10.20;;;6.97;;
60464;SDS011;46314;52.392;9.758;2022-10-13T12:28:49;10.73;;;6.53;;
60464;SDS011;46314;52.392;9.758;2022-10-13T12:31:20;10.80;;;6.30;;
60464;SDS011;46314;52.392;9.758;2022-10-13T12:33:51;9.05;;;6.95;;
60464;SDS011;46314;52.392;9.758;2022-10-13T12:36:19;8.93;;;6.20;;
60464;SDS011;46314;52.392;9.758;2022-10-13T12:38:49;12.55;;;6.60;;
60464;SDS011;46314;52.392;9.758;2022-10-13T12:41:18;14.38;;;5.88;;
60464;SDS011;46314;52.392;9.758;2022-10-13T12:43:50;11.32;;;6.00;;
60464;SDS011;46314;52.392;9.758;2022-10-13T12:46:37;11.32;;;6.97;;
60464;SDS011;46314;52.392;9.758;2022-10-13T12:49:05;13.38;;;6.85;;
60464;SDS011;46314;52.392;9.758;2022-10-13T12:51:32;10.48;;;5.47;;
60464;SDS011;46314;52.392;9.758;2022-10-13T12:54:05;8.85;;;5.65;;
60464;SDS011;46314;52.392;9.758;2022-10-13T12:56:32;8.10;;;5.55;;
60464;SDS011;46314;52.392;9.758;2022-10-13T12:59:00;9.38;;;5.72;;
60464;SDS011;46314;52.392;9.758;2022-10-13T13:01:28;8.30;;;5.28;;
60464;SDS011;46314;52.392;9.758;2022-10-13T13:03:57;12.07;;;6.22;;
60464;SDS011;46314;52.392;9.758;2022-10-13T13:06:27;7.28;;;5.40;;
60464;SDS011;46314;52.392;9.758;2022-10-13T13:14:53;11.05;;;5.60;;
60464;SDS011;46314;52.392;9.758;2022-10-13T13:17:22;8.90;;;5.78;;
60464;SDS011;46314;52.392;9.758;2022-10-13T13:20:24;11.73;;;5.47;;
60464;SDS011;46314;52.392;9.758;2022-10-13T13:22:52;10.57;;;5.45;;
60464;SDS011;46314;52.392;9.758;2022-10-13T13:25:19;9.23;;;5.28;;
60464;SDS011;46314;52.392;9.758;2022-10-13T13:27:45;8.48;;;4.97;;
60464;SDS011;46314;52.392;9.758;2022-10-13T13:30:14;8.77;;;5.00;;
60464;SDS011;46314;52.392;9.758;2022-10-13T13:32:42;9.38;;;5.10;;
60464;SDS011;46314;52.392;9.758;2022-10-13T13:35:09;11.00;;;5.72;;
60464;SDS011;46314;52.392;9.758;2022-10-13T13:37:36;9.23;;;5.03;;
60464;SDS011;46314;52.392;9.758;2022-10-13T13:40:05;9.35;;;5.30;;
60464;SDS011;46314;52.392;9.758;2022-10-13T13:42:33;12.40;;;5.82;;
60464;SDS011;46314;52.392;9.758;2022-10-13T13:44:59;8.65;;;5.07;;
60464;SDS011;46314;52.392;9.758;2022-10-13T13:47:27;7.85;;;5.43;;
60464;SDS011;46314;52.392;9.758;2022-10-13T13:49:54;9.32;;;5.60;;
60464;SDS011;46314;52.392;9.758;2022-10-13T13:52:22;9.35;;;5.38;;
60464;SDS011;46314;52.392;9.758;2022-10-13T13:54:49;11.77;;;5.45;;
60464;SDS011;46314;52.392;9.758;2022-10-13T13:57:16;11.38;;;5.65;;
60464;SDS011;46314;52.392;9.758;2022-10-13T13:59:44;9.55;;;4.95;;
60464;SDS011;46314;52.392;9.758;2022-10-13T14:02:11;8.60;;;5.07;;
60464;SDS011;46314;52.392;9.758;2022-10-13T14:04:41;14.00;;;6.38;;
60464;SDS011;46314;52.392;9.758;2022-10-13T14:07:08;12.65;;;6.05;;
60464;SDS011;46314;52.392;9.758;2022-10-13T14:09:34;7.25;;;5.90;;
60464;SDS011;46314;52.392;9.758;2022-10-13T14:12:00;9.20;;;5.93;;
60464;SDS011;46314;52.392;9.758;2022-10-13T14:14:28;8.13;;;5.50;;
60464;SDS011;46314;52.392;9.758;2022-10-13T14:16:55;11.40;;;6.35;;
60464;SDS011;46314;52.392;9.758;2022-10-13T14:19:21;10.68;;;6.22;;
60464;SDS011;46314;52.392;9.758;2022-10-13T14:21:49;8.20;;;6.53;;
60464;SDS011;46314;52.392;9.758;2022-10-13T14:24:16;9.50;;;5.38;;
60464;SDS011;46314;52.392;9.758;2022-10-13T14:26:42;6.60;;;5.63;;
60464;SDS011;46314;52.392;9.758;2022-10-13T14:29:09;7.53;;;5.38;;
60464;SDS011;46314;52.392;9.758;2022-10-13T14:31:35;8.45;;;5.18;;
60464;SDS011;46314;52.392;9.758;2022-10-13T14:34:02;10.40;;;5.55;;
60464;SDS011;46314;52.392;9.758;2022-10-13T14:36:28;7.75;;;5.55;;
60464;SDS011;46314;52.392;9.758;2022-10-13T14:38:56;12.10;;;5.55;;
60464;SDS011;46314;52.392;9.758;2022-10-13T14:41:22;7.90;;;4.63;;
60464;SDS011;46314;52.392;9.758;2022-10-13T14:43:50;9.15;;;4.93;;
60464;SDS011;46314;52.392;9.758;2022-10-13T14:46:17;10.98;;;5.80;;
60464;SDS011;46314;52.392;9.758;2022-10-13T14:48:44;7.57;;;5.65;;
60464;SDS011;46314;52.392;9.758;2022-10-13T14:51:10;9.30;;;6.10;;
60464;SDS011;46314;52.392;9.758;2022-10-13T14:53:38;7.60;;;5.30;;
60464;SDS011;46314;52.392;9.758;2022-10-13T14:56:14;10.05;;;5.45;;
60464;SDS011;46314;52.392;9.758;2022-10-13T14:58:42;8.98;;;5.60;;
60464;SDS011;46314;52.392;9.758;2022-10-13T15:01:08;8.32;;;5.18;;
60464;SDS011;46314;52.392;9.758;2022-10-13T15:03:35;8.93;;;5.28;;
60464;SDS011;46314;52.392;9.758;2022-10-13T15:06:01;7.90;;;5.50;;
60464;SDS011;46314;52.392;9.758;2022-10-13T15:08:28;13.07;;;9.13;;
60464;SDS011;46314;52.392;9.758;2022-10-13T15:10:57;12.00;;;7.72;;
60464;SDS011;46314;52.392;9.758;2022-10-13T15:13:25;10.75;;;6.63;;
60464;SDS011;46314;52.392;9.758;2022-10-13T15:15:52;8.88;;;6.53;;
60464;SDS011;46314;52.392;9.758;2022-10-13T15:18:18;8.45;;;6.22;;
60464;SDS011;46314;52.392;9.758;2022-10-13T15:20:45;11.80;;;5.75;;